Portada
METAR-TAF:

METAR-TAF

Aeroports :

Curaçao, Antilles Neerlandeses

latitud: 12-12N, longitud: 068-58W, altitud: 9 m

Observació

L'informe es va fer fa 18 minuts, a les 01:00 UTC
Vent 12 kt del Est
Temperatura 26°C
Humitat 79%
Pressió 1014 hPa
Visibilitat 10 km o més
Escasses núvols a una alçada de 1900 ft

METAR: TNCC 230100Z 09012KT 9999 FEW019 26/22 Q1014 NOSIG

Hora: 21:18 (01:18 UTC)

Pronòstic

L'informe es va fer fa 2 hores i 3 minuts, a les 23:15 UTC
Pronòstic vàlid del 23 a les 00 UTC al 23 a les 24 UTC
Vent 12 kt del Est
Visibilitat 10 km o més
Núvols disperses a una alçada de 2000 ft

TAF: TNCC 222315Z 2300/2324 10012KT 9999 SCT020

Observacions i pronòstics meteorològics de més de 4000 aeroports (METAR i TAF).

Les estacions disponibles són els punts grocs i vermells al mapa.

Posi el ratolí al punt desitjat per veure el nom de l'estació.

Feu clic per veure les observacions i els pronòstics meteorològics.

Per canviar el mapa: feu clic els botons verds amb una creu de color negre per apropar; al botó verd amb un guió per allunyar la imatge; o en les fletxes verdes per a mapes adjacents.


METAR-TAF: